createdAt,value
2018-02-14T14:43:49.865Z,2.20
2018-02-14T14:46:17.280Z,2.67
2018-02-14T14:48:44.698Z,2.20
2018-02-14T14:51:12.125Z,2.30
2018-02-14T14:53:40.309Z,2.37
2018-02-14T14:56:08.528Z,2.23
2018-02-14T14:58:35.920Z,2.50
2018-02-14T15:01:04.464Z,2.37
2018-02-14T15:03:32.885Z,2.10
2018-02-14T15:06:03.015Z,2.20
2018-02-14T15:08:31.229Z,2.00
2018-02-14T15:11:06.886Z,2.03
2018-02-14T15:13:34.319Z,2.50
2018-02-14T15:16:01.744Z,2.43
2018-02-14T15:18:29.933Z,3.00
2018-02-14T15:20:57.350Z,2.93
2018-02-14T15:23:24.982Z,3.17
2018-02-14T15:25:52.402Z,2.93
2018-02-14T15:28:20.746Z,2.97
2018-02-14T15:33:40.985Z,3.20
2018-02-14T15:36:09.301Z,3.30
2018-02-14T15:38:36.722Z,3.53
2018-02-14T15:41:04.142Z,3.23
2018-02-14T15:43:31.553Z,3.33
2018-02-14T15:45:59.134Z,3.33
2018-02-14T15:48:26.537Z,3.63
2018-02-14T15:50:54.721Z,3.70
2018-02-14T15:53:22.146Z,3.77
2018-02-14T15:55:49.557Z,4.17
2018-02-14T15:58:16.990Z,4.40
2018-02-14T16:00:44.402Z,4.40
2018-02-14T16:03:11.818Z,4.40
2018-02-14T16:05:39.242Z,3.70
2018-02-14T16:08:07.438Z,3.83
2018-02-14T16:10:34.845Z,3.70
2018-02-14T16:13:02.273Z,3.20
2018-02-14T16:15:29.678Z,3.60
2018-02-14T16:17:58.205Z,3.20
2018-02-14T16:20:25.621Z,3.10
2018-02-14T16:22:53.801Z,3.37
2018-02-14T16:25:22.215Z,3.00
2018-02-14T16:27:49.669Z,2.90
2018-02-14T16:30:17.861Z,3.33
2018-02-14T16:32:45.285Z,3.53
2018-02-14T16:35:12.713Z,2.97
2018-02-14T16:37:40.904Z,2.60
2018-02-14T16:40:09.082Z,3.23
2018-02-14T16:42:37.266Z,2.87
2018-02-14T16:45:04.693Z,2.87
2018-02-14T16:47:32.878Z,2.93
2018-02-14T16:50:01.062Z,2.60
2018-02-14T16:52:29.262Z,3.00
2018-02-14T16:54:56.681Z,2.63
2018-02-14T16:57:24.882Z,3.00
2018-02-14T16:59:52.297Z,2.40
2018-02-14T17:02:19.705Z,2.33
2018-02-14T17:04:47.154Z,2.90
2018-02-14T17:07:14.573Z,2.80
2018-02-14T17:09:42.766Z,2.60
2018-02-14T17:12:10.193Z,2.60
2018-02-14T17:14:37.618Z,2.20
2018-02-14T17:17:05.030Z,2.43
2018-02-14T17:19:32.459Z,2.70
2018-02-14T17:22:00.642Z,2.47
2018-02-14T17:24:28.831Z,2.53
2018-02-14T17:26:57.013Z,2.90
2018-02-14T17:29:24.442Z,2.53
2018-02-14T17:31:51.857Z,2.57
2018-02-14T17:34:19.289Z,2.80
2018-02-14T17:36:46.703Z,2.50
2018-02-14T17:39:14.126Z,2.47
2018-02-14T17:41:41.546Z,2.70
2018-02-14T17:44:09.017Z,2.47
2018-02-14T17:46:36.433Z,2.40
2018-02-14T17:49:03.854Z,2.70
2018-02-14T17:51:31.265Z,2.63
2018-02-14T17:53:59.462Z,2.70
2018-02-14T17:56:26.882Z,2.67
2018-02-14T17:58:54.301Z,2.50
2018-02-14T18:01:21.710Z,2.57
2018-02-14T18:03:49.134Z,3.00
2018-02-14T18:06:18.071Z,2.37
2018-02-14T18:08:45.499Z,2.70
2018-02-14T18:11:13.684Z,2.43
2018-02-14T18:13:41.929Z,2.70
2018-02-14T18:16:12.130Z,2.60
2018-02-14T18:18:39.881Z,2.70
2018-02-14T18:21:07.316Z,2.37
2018-02-14T18:23:34.725Z,2.57
2018-02-14T18:26:02.175Z,2.60
2018-02-14T18:28:29.618Z,2.87
2018-02-14T18:30:57.186Z,2.30
2018-02-14T18:33:24.762Z,2.50
2018-02-14T18:35:52.806Z,2.57
2018-02-14T18:38:20.429Z,2.40
2018-02-14T18:40:47.861Z,2.53
2018-02-14T18:43:15.278Z,2.50
2018-02-14T18:45:42.976Z,2.70
2018-02-14T18:48:10.394Z,2.27
2018-02-14T18:50:38.578Z,2.53
2018-02-14T18:53:06.009Z,2.47
2018-02-14T18:55:33.425Z,2.23
2018-02-14T18:58:01.647Z,2.60
2018-02-14T19:00:29.067Z,2.50
2018-02-14T19:02:57.299Z,2.57
2018-02-14T19:05:25.467Z,2.40
2018-02-14T19:07:52.921Z,2.40
2018-02-14T19:10:20.332Z,2.47
2018-02-14T19:12:48.523Z,2.30
2018-02-14T19:15:15.970Z,2.40
2018-02-14T19:17:46.686Z,2.13
2018-02-14T19:20:14.883Z,2.37
2018-02-14T19:22:42.354Z,2.57
2018-02-14T19:25:09.762Z,2.50
